Sunday, July 22, 2018, 10:08 AM EDT
Back to Local

KALB, Albany International Airport

Location: Latham, NY, United States Lat: 42.75
Local Time: 10:08 AM EDT (14:08 GMT) Lon: -73.8
Time Zone: US/Eastern Elev: 285 ft

Show me the last for .
Show Decoded

2018-07-22 09:51 METAR KALB 221351Z 01006KT 10SM FEW023 BKN027 OVC034 21/18 A2993 RMK AO2 SLP134
                 OCNL BINOVC T02060178 =
2018-07-22 08:51 METAR KALB 221251Z 00000KT 3SM BKN029 BKN040 OVC070 20/17 A2992 RMK AO2 SFC VIS
                 5 RAE41 SLP131 OCNL BINOVC P0012 T02000172 =
2018-07-22 08:47 METAR KALB 221247Z 00000KT 3SM BKN023 BKN029 OVC042 20/18 A2992 RMK AO2 SFC VIS
                 5 RAE41 VIS NW 2 1/2 OCNL BINOVC P0012 =
2018-07-22 08:09 METAR KALB 221209Z VRB03KT 2SM -RA BR BKN027 BKN032 OVC060 19/17 A2992 RMK AO2
                 SFC VIS 2 1/2 VIS 2V3 P0009 T01940172 =
2018-07-22 07:58 METAR KALB 221158Z 04007KT 1SM R01/4500VP6000FT RA BR BKN025 BKN032 OVC060 19/17
                 A2991 =
2018-07-22 07:51 METAR KALB 221151Z 04007KT 2SM R01/5000VP6000FT RA BR BKN027 BKN032 OVC065 19/17
                 A2992 RMK AO2 RAB37 SLP128 P0004 60025 70025 T01940167 10217 20178 56007 =
2018-07-22 06:51 METAR KALB 221051Z 04006KT 10SM BKN027 BKN040 OVC050 18/16 A2992 RMK AO2 RAE24
                 SLP128 VCSH SE P0002 T01830161 =
2018-07-22 06:27 METAR KALB 221027Z 03008KT 10SM BKN027 BKN035 OVC050 18/16 A2992 RMK AO2 RAE24
                 P0002 T01830156 =
2018-07-22 05:51 METAR KALB 220951Z 03009KT 8SM -RA SCT025 BKN055 OVC070 18/15 A2992 RMK AO2
                 SLP129 P0006 T01780150 =
2018-07-22 05:06 METAR KALB 220906Z 04006KT 10SM -RA SCT027 BKN060 OVC070 18/15 A2993 RMK AO2
                 P0000 T01780150 =
2018-07-22 04:51 METAR KALB 220851Z 03004KT 7SM -RA BKN027 BKN050 OVC060 18/15 A2994 RMK AO2
                 SLP136 BKN027 V SCT P0006 60013 T01780150 58016 =
2018-07-22 04:04 METAR KALB 220804Z 00000KT 7SM -RA BKN027 BKN041 OVC050 18/14 A2996 RMK AO2
                 P0002 T01830144 =
2018-07-22 03:51 METAR KALB 220751Z 04003KT 7SM -RA BKN030 BKN041 OVC050 18/14 A2997 RMK AO2
                 SLP146 P0006 T01830144 =
2018-07-22 02:51 METAR KALB 220651Z 02003KT 10SM -RA BKN038 OVC050 20/14 A2998 RMK AO2 RAB22
                 SLP149 P0001 T02000139 =
2018-07-22 01:51 METAR KALB 220551Z 05006KT 10SM SCT037 OVC050 22/12 A2999 RMK AO2 SLP152
                 T02170122 10250 20211 56015 =
2018-07-22 00:51 METAR KALB 220451Z 05006KT 10SM BKN050 BKN065 OVC150 22/13 A3000 RMK AO2 SLP157
                 T02170133 402890178 =
2018-07-21 23:51 METAR KALB 220351Z 05006KT 10SM BKN065 BKN150 OVC260 22/13 A3001 RMK AO2 SLP162
                 OCNL BINOVC T02170133 =
2018-07-21 22:51 METAR KALB 220251Z 08004KT 10SM FEW050 OVC260 22/13 A3003 RMK AO2 SLP167
                 T02220128 58003 =
2018-07-21 21:51 METAR KALB 220151Z 13006KT 10SM FEW050 FEW210 BKN260 23/13 A3004 RMK AO2 SLP171
                 T02330128 =
2018-07-21 20:51 METAR KALB 220051Z 12004KT 10SM FEW050 FEW090 FEW210 BKN260 24/12 A3004 RMK AO2
                 SLP172 T02390117 =
2018-07-21 19:51 METAR KALB 212351Z 14005KT 10SM FEW048 FEW090 FEW210 BKN260 25/12 A3004 RMK AO2
                 SLP171 T02500117 10289 20250 53005 =
2018-07-21 18:51 METAR KALB 212251Z 13009KT 10SM FEW220 BKN260 27/11 A3003 RMK AO2 SLP168
                 T02670111 =
2018-07-21 17:51 METAR KALB 212151Z 18009KT 10SM FEW200 BKN270 28/09 A3002 RMK AO2 SLP164
                 T02780094 =
2018-07-21 16:51 METAR KALB 212051Z 14009KT 10SM FEW200 BKN270 28/08 A3002 RMK AO2 SLP166
                 T02830083 56013 =
2018-07-21 15:51 METAR KALB 211951Z 17010G15KT 10SM FEW060 FEW220 BKN270 29/09 A3003 RMK AO2
                 SLP169 T02890094 =
2018-07-21 14:51 METAR KALB 211851Z 13006KT 10SM FEW060 FEW250 SCT270 28/11 A3005 RMK AO2 SLP174
                 T02830106 =
2018-07-21 13:51 METAR KALB 211751Z 14009KT 10SM FEW050 FEW250 SCT270 27/11 A3006 RMK AO2 SLP179
                 T02720106 10283 20211 58019 =
2018-07-21 12:51 METAR KALB 211651Z COR 16005G14KT 10SM FEW045 SCT250 SCT270 27/12 A3009 RMK AO2
                 SLP189 T02670117 =
2018-07-21 11:51 METAR KALB 211551Z 15007KT 10SM SCT042 BKN220 BKN270 25/13 A3011 RMK AO2 SLP195
                 SCT V BKN T02500128 =
2018-07-21 10:51 METAR KALB 211451Z 16008KT 110V190 10SM BKN037 BKN220 BKN270 26/13 A3012 RMK AO2
                 SLP197 T02560133 58002 =

Support USWX by starting your Amazon purchase here.